createdAt,value
2022-09-05T00:00:04.049Z,14.40
2022-09-05T00:02:33.647Z,14.30
2022-09-05T00:05:19.341Z,14.30
2022-09-05T00:08:04.397Z,14.30
2022-09-05T00:10:44.832Z,14.40
2022-09-05T00:13:30.676Z,14.40
2022-09-05T00:16:12.471Z,14.40
2022-09-05T00:21:31.570Z,14.30
2022-09-05T00:24:32.146Z,14.30
2022-09-05T00:24:50.103Z,14.30
2022-09-05T00:27:37.512Z,14.30
2022-09-05T00:31:05.853Z,14.40
2022-09-05T00:33:16.909Z,14.40
2022-09-05T00:35:56.602Z,14.40
2022-09-05T00:38:36.541Z,14.40
2022-09-05T00:41:07.329Z,14.40
2022-09-05T00:43:33.966Z,14.40
2022-09-05T00:46:09.193Z,14.40
2022-09-05T00:48:35.894Z,14.40
2022-09-05T00:51:21.404Z,14.30
2022-09-05T00:54:02.297Z,14.40
2022-09-05T00:56:47.751Z,14.40
2022-09-05T00:59:32.521Z,14.40
2022-09-05T01:02:17.963Z,14.30
2022-09-05T01:05:03.782Z,14.30
2022-09-05T01:07:33.512Z,14.30
2022-09-05T01:10:12.337Z,14.20
2022-09-05T01:12:52.719Z,14.20
2022-09-05T01:15:22.901Z,14.20
2022-09-05T01:17:56.727Z,14.20
2022-09-05T01:20:46.632Z,14.20
2022-09-05T01:23:19.063Z,14.10
2022-09-05T01:25:54.950Z,14.10
2022-09-05T01:29:16.063Z,14.10
2022-09-05T01:31:27.707Z,14.10
2022-09-05T01:34:00.107Z,14.10
2022-09-05T01:36:45.376Z,14.10
2022-09-05T01:40:12.457Z,14.10
2022-09-05T01:42:08.665Z,14.10
2022-09-05T01:44:41.386Z,14.10
2022-09-05T01:47:11.157Z,14.00
2022-09-05T01:49:37.791Z,14.00
2022-09-05T01:52:11.375Z,14.00
2022-09-05T01:54:53.382Z,14.00
2022-09-05T01:57:20.328Z,13.90
2022-09-05T02:00:04.287Z,14.00
2022-09-05T02:02:50.680Z,14.00
2022-09-05T02:05:47.475Z,13.90
2022-09-05T02:08:15.181Z,13.80
2022-09-05T02:10:41.831Z,13.80
2022-09-05T02:13:15.661Z,13.80
2022-09-05T02:15:58.926Z,13.70
2022-09-05T02:18:29.279Z,13.60
2022-09-05T02:21:00.497Z,13.60
2022-09-05T02:23:41.106Z,13.60
2022-09-05T02:26:31.747Z,13.60
2022-09-05T02:29:01.283Z,13.60
2022-09-05T02:31:32.692Z,13.60
2022-09-05T02:34:08.203Z,13.60
2022-09-05T02:36:45.655Z,13.70
2022-09-05T02:45:02.533Z,13.70
2022-09-05T02:45:11.427Z,13.60
2022-09-05T02:45:28.583Z,13.50
2022-09-05T02:48:15.725Z,13.40
2022-09-05T02:57:23.345Z,13.50
2022-09-05T02:57:33.491Z,13.50
2022-09-05T02:57:38.174Z,13.50
2022-09-05T02:59:38.800Z,13.40
2022-09-05T03:02:26.309Z,13.30
2022-09-05T03:05:13.032Z,13.30
2022-09-05T03:07:58.256Z,13.30
2022-09-05T03:10:53.545Z,13.30
2022-09-05T03:13:31.278Z,13.40
2022-09-05T03:16:36.590Z,13.20
2022-09-05T03:19:22.886Z,13.30
2022-09-05T03:22:08.255Z,13.30
2022-09-05T03:24:56.006Z,13.30
2022-09-05T03:27:41.854Z,13.20
2022-09-05T03:30:12.161Z,13.30
2022-09-05T03:32:57.631Z,13.20
2022-09-05T03:35:36.911Z,13.30
2022-09-05T03:38:22.372Z,13.20
2022-09-05T03:40:55.988Z,13.20
2022-09-05T03:43:41.106Z,13.20
2022-09-05T03:46:08.653Z,13.10
2022-09-05T03:48:38.398Z,13.10
2022-09-05T03:57:04.925Z,13.10
2022-09-05T03:57:15.961Z,13.20
2022-09-05T03:57:41.567Z,13.10
2022-09-05T04:00:12.407Z,13.20
2022-09-05T04:08:07.407Z,13.20
2022-09-05T04:08:28.208Z,13.30
2022-09-05T04:08:42.405Z,13.30
2022-09-05T04:11:25.076Z,13.20
2022-09-05T04:13:56.019Z,13.10
2022-09-05T04:16:22.685Z,13.10
2022-09-05T04:18:53.470Z,13.10
2022-09-05T04:21:31.245Z,13.10
2022-09-05T04:24:16.354Z,13.10
2022-09-05T04:26:58.179Z,13.10
2022-09-05T04:29:48.490Z,13.00
2022-09-05T04:32:19.699Z,13.00
2022-09-05T04:34:52.810Z,13.00
2022-09-05T04:37:47.737Z,13.00
2022-09-05T04:40:33.367Z,13.10
2022-09-05T04:43:02.260Z,13.00
2022-09-05T04:45:29.872Z,13.00
2022-09-05T04:47:57.878Z,13.10
2022-09-05T04:50:35.211Z,13.10
2022-09-05T04:53:33.676Z,13.10
2022-09-05T04:56:01.211Z,13.10
2022-09-05T04:58:56.170Z,13.20
2022-09-05T05:06:01.409Z,13.20
2022-09-05T05:06:13.322Z,13.30
2022-09-05T05:07:06.072Z,13.20
2022-09-05T05:09:44.897Z,13.30
2022-09-05T05:17:54.427Z,13.30
2022-09-05T05:18:11.991Z,13.30
2022-09-05T05:18:36.592Z,13.30
2022-09-05T05:21:20.531Z,13.30
2022-09-05T05:23:50.480Z,13.40
2022-09-05T05:26:30.257Z,13.40
2022-09-05T05:29:00.068Z,13.40
2022-09-05T05:31:46.543Z,13.40
2022-09-05T05:34:36.735Z,13.50
2022-09-05T05:37:22.265Z,13.50
2022-09-05T05:39:51.535Z,13.60
2022-09-05T05:42:22.150Z,13.60
2022-09-05T05:44:53.822Z,13.70
2022-09-05T05:47:31.424Z,13.70
2022-09-05T05:50:05.143Z,13.80
2022-09-05T05:52:40.943Z,13.90
2022-09-05T05:55:50.530Z,14.00
2022-09-05T05:58:03.405Z,14.10
2022-09-05T06:00:30.946Z,14.20
2022-09-05T06:03:27.017Z,14.20
2022-09-05T06:06:07.874Z,14.30
2022-09-05T06:14:49.726Z,14.50
2022-09-05T06:14:57.754Z,14.60
2022-09-05T06:15:10.190Z,14.70
2022-09-05T06:17:38.060Z,14.90
2022-09-05T06:20:42.963Z,15.00
2022-09-05T06:23:39.527Z,15.10
2022-09-05T06:26:18.839Z,15.30
2022-09-05T06:28:57.689Z,15.40
2022-09-05T06:31:34.787Z,15.60
2022-09-05T06:34:35.436Z,15.70
2022-09-05T06:37:21.223Z,15.80
2022-09-05T06:40:00.573Z,15.80
2022-09-05T06:42:44.124Z,15.90
2022-09-05T06:45:27.567Z,15.90
2022-09-05T06:48:08.154Z,16.00
2022-09-05T06:51:07.421Z,16.00
2022-09-05T06:53:45.973Z,16.10
2022-09-05T06:56:31.785Z,16.20
2022-09-05T06:59:09.909Z,16.30
2022-09-05T07:02:00.571Z,16.50
2022-09-05T07:05:24.540Z,16.50
2022-09-05T07:07:34.819Z,16.50
2022-09-05T07:10:35.081Z,16.60
2022-09-05T07:13:03.391Z,16.60
2022-09-05T07:15:44.475Z,16.70
2022-09-05T07:18:13.548Z,16.90
2022-09-05T07:21:17.104Z,16.90
2022-09-05T07:24:06.154Z,17.00
2022-09-05T07:26:51.774Z,17.00
2022-09-05T07:29:24.651Z,17.10
2022-09-05T07:31:55.568Z,17.30
2022-09-05T07:34:24.136Z,17.40
2022-09-05T07:37:15.585Z,17.50
2022-09-05T07:39:50.439Z,17.60
2022-09-05T07:42:21.196Z,17.70
2022-09-05T07:44:56.610Z,17.80
2022-09-05T07:47:25.759Z,17.90
2022-09-05T07:50:40.172Z,18.00
2022-09-05T07:56:50.174Z,18.00
2022-09-05T07:56:59.649Z,18.20
2022-09-05T07:58:17.239Z,18.30
2022-09-05T08:00:50.965Z,18.30
2022-09-05T08:03:17.920Z,18.40
2022-09-05T08:05:45.740Z,18.50
2022-09-05T08:08:20.615Z,18.70
2022-09-05T08:11:23.994Z,18.70
2022-09-05T08:13:46.975Z,18.80
2022-09-05T08:16:15.859Z,18.80
2022-09-05T08:18:42.963Z,18.80
2022-09-05T08:21:14.186Z,18.80
2022-09-05T08:23:41.026Z,18.90
2022-09-05T08:26:07.900Z,18.90
2022-09-05T08:28:55.367Z,19.00
2022-09-05T08:31:26.253Z,19.00
2022-09-05T08:33:56.200Z,18.90
2022-09-05T08:36:30.410Z,18.90
2022-09-05T08:39:01.069Z,19.00
2022-09-05T08:41:51.083Z,19.10
2022-09-05T08:46:43.590Z,19.20
2022-09-05T08:47:08.795Z,19.30
2022-09-05T08:49:44.037Z,19.30
2022-09-05T08:52:12.751Z,19.30
2022-09-05T08:54:48.620Z,19.20
2022-09-05T08:57:41.548Z,19.30
2022-09-05T09:00:19.105Z,19.30
2022-09-05T09:02:54.309Z,19.50
2022-09-05T09:05:56.739Z,19.50
2022-09-05T09:08:22.228Z,19.50
2022-09-05T09:10:55.446Z,19.50
2022-09-05T09:13:28.451Z,19.60
2022-09-05T09:15:55.164Z,19.70
2022-09-05T09:18:23.664Z,19.80
2022-09-05T09:20:53.185Z,19.70
2022-09-05T09:23:41.376Z,19.80
2022-09-05T09:26:15.939Z,19.70
2022-09-05T09:28:50.606Z,19.70
2022-09-05T09:31:23.313Z,19.80
2022-09-05T09:33:53.423Z,19.90
2022-09-05T09:36:25.050Z,19.80
2022-09-05T09:39:11.648Z,19.90
2022-09-05T09:41:59.169Z,19.90
2022-09-05T09:44:34.807Z,20.00
2022-09-05T09:47:03.290Z,20.00
2022-09-05T09:49:39.717Z,20.30
2022-09-05T09:52:06.616Z,20.50
2022-09-05T09:55:05.823Z,20.50
2022-09-05T09:57:44.953Z,20.70
2022-09-05T10:00:17.627Z,20.80
2022-09-05T10:05:46.229Z,20.80
2022-09-05T10:10:36.001Z,20.90
2022-09-05T10:10:53.559Z,20.80
2022-09-05T10:12:07.336Z,20.80
2022-09-05T10:14:53.144Z,20.70
2022-09-05T10:17:27.235Z,20.80
2022-09-05T10:20:12.309Z,20.70
2022-09-05T10:23:05.823Z,20.80
2022-09-05T10:25:35.628Z,20.80
2022-09-05T10:28:06.466Z,20.90
2022-09-05T10:33:10.494Z,20.80
2022-09-05T10:35:08.969Z,20.90
2022-09-05T10:36:31.525Z,20.90
2022-09-05T10:39:07.996Z,20.80
2022-09-05T10:41:49.069Z,20.80
2022-09-05T10:44:17.345Z,20.90
2022-09-05T10:46:52.699Z,20.90
2022-09-05T10:49:25.412Z,20.90
2022-09-05T10:52:07.014Z,20.90
2022-09-05T10:54:46.407Z,21.10
2022-09-05T10:57:25.488Z,21.20
2022-09-05T11:02:22.750Z,21.30
2022-09-05T11:02:57.825Z,21.30
2022-09-05T11:05:36.569Z,21.30
2022-09-05T11:08:03.367Z,21.40
2022-09-05T11:10:50.289Z,21.40
2022-09-05T11:13:29.109Z,21.50
2022-09-05T11:16:06.065Z,21.60
2022-09-05T11:18:55.331Z,21.70
2022-09-05T11:21:29.779Z,21.90
2022-09-05T11:24:17.498Z,22.00
2022-09-05T11:26:46.786Z,22.10
2022-09-05T11:29:35.108Z,22.30
2022-09-05T11:33:55.018Z,22.40
2022-09-05T11:39:54.022Z,22.40
2022-09-05T11:40:04.230Z,22.40
2022-09-05T11:41:11.542Z,22.40
2022-09-05T11:43:48.211Z,22.50
2022-09-05T11:46:15.285Z,22.40
2022-09-05T11:49:05.030Z,22.40
2022-09-05T11:51:33.834Z,22.40
2022-09-05T11:54:19.684Z,22.30
2022-09-05T11:56:46.550Z,22.30
2022-09-05T11:59:45.031Z,22.30
2022-09-05T12:02:32.841Z,22.20
2022-09-05T12:05:48.587Z,22.20
2022-09-05T12:08:18.270Z,22.20
2022-09-05T12:10:51.672Z,22.30
2022-09-05T12:13:26.460Z,22.30
2022-09-05T12:16:08.513Z,22.30
2022-09-05T12:18:57.448Z,22.20
2022-09-05T12:21:32.986Z,22.30
2022-09-05T12:25:16.371Z,22.40
2022-09-05T12:27:39.059Z,22.40
2022-09-05T12:29:59.427Z,22.60
2022-09-05T12:33:48.028Z,22.80
2022-09-05T12:36:12.714Z,22.80
2022-09-05T12:40:55.232Z,22.90
2022-09-05T12:41:40.805Z,22.80
2022-09-05T12:44:42.345Z,22.60
2022-09-05T12:47:18.569Z,22.70
2022-09-05T12:50:02.470Z,22.60
2022-09-05T12:52:31.617Z,22.50
2022-09-05T12:55:05.045Z,22.50
2022-09-05T13:02:02.885Z,22.40
2022-09-05T13:03:01.184Z,22.30
2022-09-05T13:03:28.171Z,22.30
2022-09-05T13:06:04.598Z,22.30
2022-09-05T13:08:59.639Z,22.30
2022-09-05T13:14:50.629Z,22.30
2022-09-05T13:14:58.511Z,22.20
2022-09-05T13:17:31.201Z,22.30
2022-09-05T13:20:00.751Z,22.30
2022-09-05T13:22:28.146Z,22.30
2022-09-05T13:25:07.446Z,22.30
2022-09-05T13:27:39.286Z,22.40
2022-09-05T13:33:26.807Z,22.40
2022-09-05T13:38:05.478Z,22.40
2022-09-05T13:38:13.078Z,22.50
2022-09-05T13:39:04.420Z,22.50
2022-09-05T13:41:34.750Z,22.60
2022-09-05T13:44:25.151Z,22.70
2022-09-05T13:47:29.768Z,22.60
2022-09-05T13:50:17.438Z,22.70
2022-09-05T13:52:46.207Z,22.70
2022-09-05T13:55:22.313Z,22.70
2022-09-05T13:57:51.681Z,22.80
2022-09-05T14:00:27.786Z,22.80
2022-09-05T14:06:08.564Z,22.80
2022-09-05T14:12:11.673Z,22.90
2022-09-05T14:17:52.284Z,22.80
2022-09-05T14:20:38.429Z,22.70
2022-09-05T14:23:13.462Z,22.60
2022-09-05T14:25:43.120Z,22.60
2022-09-05T14:28:39.408Z,22.50
2022-09-05T14:36:45.210Z,22.60
2022-09-05T14:37:42.669Z,22.60
2022-09-05T14:37:51.402Z,22.60
2022-09-05T14:39:55.621Z,22.70
2022-09-05T14:42:37.768Z,22.70
2022-09-05T14:45:06.237Z,22.70
2022-09-05T14:47:47.422Z,22.70
2022-09-05T14:50:39.582Z,22.70
2022-09-05T14:56:56.428Z,22.80
2022-09-05T15:02:41.675Z,22.80
2022-09-05T15:02:46.363Z,22.80
2022-09-05T15:05:11.635Z,22.80
2022-09-05T15:07:44.581Z,22.80
2022-09-05T15:12:15.620Z,22.90
2022-09-05T15:13:12.944Z,22.90
2022-09-05T15:16:18.534Z,22.90
2022-09-05T15:18:47.210Z,22.80
2022-09-05T15:21:34.422Z,22.80
2022-09-05T15:24:14.879Z,22.80
2022-09-05T15:26:58.660Z,22.70
2022-09-05T15:29:25.315Z,22.70
2022-09-05T15:31:57.593Z,22.60
2022-09-05T15:34:38.340Z,22.60
2022-09-05T15:37:22.289Z,22.60
2022-09-05T15:40:00.194Z,22.50
2022-09-05T15:42:30.422Z,22.50
2022-09-05T15:45:16.771Z,22.40
2022-09-05T15:47:50.618Z,22.40
2022-09-05T15:50:21.879Z,22.40
2022-09-05T15:52:55.067Z,22.40
2022-09-05T15:55:23.817Z,22.40
2022-09-05T15:57:55.563Z,22.40
2022-09-05T16:00:41.415Z,22.30
2022-09-05T16:04:45.380Z,22.20
2022-09-05T16:10:27.741Z,22.20
2022-09-05T16:10:37.062Z,22.10
2022-09-05T16:12:14.277Z,22.00
2022-09-05T16:16:20.155Z,22.00
2022-09-05T16:23:27.785Z,21.90
2022-09-05T16:23:32.025Z,21.90
2022-09-05T16:23:43.710Z,21.80
2022-09-05T16:26:12.914Z,21.70
2022-09-05T16:28:51.249Z,21.70
2022-09-05T16:31:18.323Z,21.70
2022-09-05T16:33:46.831Z,21.60
2022-09-05T16:36:36.836Z,21.70
2022-09-05T16:39:12.402Z,21.70
2022-09-05T16:41:44.798Z,21.60
2022-09-05T16:44:32.007Z,21.60
2022-09-05T16:47:23.476Z,21.60
2022-09-05T16:49:57.364Z,21.50
2022-09-05T16:52:30.536Z,21.50
2022-09-05T16:55:28.903Z,21.40
2022-09-05T16:58:14.409Z,21.40
2022-09-05T17:00:55.830Z,21.30
2022-09-05T17:03:41.644Z,21.30
2022-09-05T17:06:25.548Z,21.20
2022-09-05T17:08:55.477Z,21.10
2022-09-05T17:11:55.959Z,21.10
2022-09-05T17:14:30.907Z,21.00
2022-09-05T17:16:59.348Z,21.00
2022-09-05T17:19:28.409Z,20.90
2022-09-05T17:27:29.758Z,20.80
2022-09-05T17:29:17.047Z,20.70
2022-09-05T17:29:46.907Z,20.50
2022-09-05T17:33:40.287Z,20.30
2022-09-05T17:36:14.751Z,20.20
2022-09-05T17:38:48.730Z,20.10
2022-09-05T17:41:21.560Z,20.00
2022-09-05T17:43:51.236Z,19.80
2022-09-05T17:46:25.596Z,19.80
2022-09-05T17:49:16.181Z,19.80
2022-09-05T17:51:51.394Z,19.80
2022-09-05T17:54:32.077Z,19.70
2022-09-05T17:57:18.697Z,19.70
2022-09-05T17:59:45.448Z,19.60
2022-09-05T18:02:15.265Z,19.50
2022-09-05T18:04:52.514Z,19.50
2022-09-05T18:07:25.508Z,19.40
2022-09-05T18:10:00.521Z,19.30
2022-09-05T18:13:13.521Z,19.30
2022-09-05T18:15:35.917Z,19.20
2022-09-05T18:18:05.447Z,19.20
2022-09-05T18:20:33.222Z,19.10
2022-09-05T18:26:22.249Z,19.00
2022-09-05T18:28:52.269Z,18.90
2022-09-05T18:31:41.431Z,18.90
2022-09-05T18:34:14.781Z,18.80
2022-09-05T18:36:42.985Z,18.80
2022-09-05T18:39:27.863Z,18.70
2022-09-05T18:42:25.570Z,18.70
2022-09-05T18:44:50.819Z,18.60
2022-09-05T18:47:33.025Z,18.60
2022-09-05T18:50:26.777Z,18.50
2022-09-05T18:52:50.808Z,18.50
2022-09-05T18:56:13.007Z,18.40
2022-09-05T18:58:27.095Z,18.30
2022-09-05T19:00:55.313Z,18.20
2022-09-05T19:03:25.881Z,18.20
2022-09-05T19:06:35.733Z,18.20
2022-09-05T19:09:03.303Z,18.20
2022-09-05T19:11:32.911Z,18.20
2022-09-05T19:14:26.642Z,18.10
2022-09-05T19:16:58.266Z,18.10
2022-09-05T19:19:27.819Z,18.00
2022-09-05T19:22:54.143Z,18.10
2022-09-05T19:24:46.179Z,18.00
2022-09-05T19:27:47.256Z,18.00
2022-09-05T19:36:46.600Z,18.10
2022-09-05T19:36:48.763Z,18.10
2022-09-05T19:36:54.140Z,18.10
2022-09-05T19:38:22.817Z,18.10
2022-09-05T19:47:29.230Z,18.00
2022-09-05T19:47:37.954Z,18.00
2022-09-05T19:47:39.457Z,18.00
2022-09-05T19:49:12.791Z,18.10
2022-09-05T19:51:41.342Z,18.10
2022-09-05T19:54:08.716Z,18.00
2022-09-05T19:56:45.371Z,18.10
2022-09-05T19:59:22.989Z,18.00
2022-09-05T20:01:51.934Z,18.00
2022-09-05T20:04:19.636Z,18.00
2022-09-05T20:06:50.059Z,17.90
2022-09-05T20:09:18.386Z,17.90
2022-09-05T20:11:46.698Z,17.80
2022-09-05T20:14:18.032Z,17.80
2022-09-05T20:16:44.712Z,17.70
2022-09-05T20:19:28.873Z,17.70
2022-09-05T20:21:58.354Z,17.70
2022-09-05T20:24:25.187Z,17.60
2022-09-05T20:26:51.920Z,17.70
2022-09-05T20:29:49.268Z,17.70
2022-09-05T20:32:17.295Z,17.70
2022-09-05T20:38:36.804Z,17.70
2022-09-05T20:43:15.205Z,17.80
2022-09-05T20:43:16.798Z,17.70
2022-09-05T20:43:42.058Z,17.80
2022-09-05T20:47:30.084Z,17.80
2022-09-05T20:54:06.656Z,17.80
2022-09-05T20:54:19.412Z,17.90
2022-09-05T20:54:42.271Z,17.90
2022-09-05T20:57:14.472Z,17.90
2022-09-05T20:59:42.581Z,17.90
2022-09-05T21:02:29.854Z,17.90
2022-09-05T21:05:06.606Z,17.90
2022-09-05T21:07:59.519Z,17.90
2022-09-05T21:10:55.646Z,17.90
2022-09-05T21:13:33.832Z,17.90
2022-09-05T21:16:00.915Z,17.90
2022-09-05T21:18:33.888Z,17.90
2022-09-05T21:21:28.811Z,17.90
2022-09-05T21:23:59.048Z,17.80
2022-09-05T21:26:32.355Z,17.70
2022-09-05T21:29:09.286Z,17.70
2022-09-05T21:31:41.559Z,17.60
2022-09-05T21:34:13.156Z,17.60
2022-09-05T21:36:41.530Z,17.60
2022-09-05T21:39:08.178Z,17.60
2022-09-05T21:41:34.808Z,17.60
2022-09-05T21:47:44.001Z,17.50
2022-09-05T21:47:44.282Z,17.50
2022-09-05T21:49:39.418Z,17.40
2022-09-05T21:52:07.439Z,17.40
2022-09-05T21:59:20.797Z,17.40
2022-09-05T21:59:29.496Z,17.40
2022-09-05T22:03:05.128Z,17.40
2022-09-05T22:05:45.511Z,17.40
2022-09-05T22:08:13.391Z,17.40
2022-09-05T22:10:51.344Z,17.40
2022-09-05T22:13:19.316Z,17.40
2022-09-05T22:15:48.663Z,17.40
2022-09-05T22:18:17.226Z,17.40
2022-09-05T22:20:46.160Z,17.40
2022-09-05T22:23:20.250Z,17.40
2022-09-05T22:25:46.921Z,17.40
2022-09-05T22:28:17.377Z,17.40
2022-09-05T22:30:44.031Z,17.40
2022-09-05T22:33:12.137Z,17.40
2022-09-05T22:35:39.248Z,17.40
2022-09-05T22:38:12.470Z,17.30
2022-09-05T22:40:40.810Z,17.30
2022-09-05T22:43:10.135Z,17.20
2022-09-05T22:45:37.554Z,17.30
2022-09-05T22:48:08.604Z,17.30
2022-09-05T22:50:35.347Z,17.30
2022-09-05T22:53:06.690Z,17.30
2022-09-05T22:55:36.191Z,17.30
2022-09-05T22:58:03.329Z,17.30
2022-09-05T23:00:30.023Z,17.30
2022-09-05T23:03:00.130Z,17.30
2022-09-05T23:05:27.063Z,17.30
2022-09-05T23:07:57.003Z,17.20
2022-09-05T23:10:23.833Z,17.30
2022-09-05T23:12:50.504Z,17.20
2022-09-05T23:15:17.278Z,17.20
2022-09-05T23:17:44.443Z,17.20
2022-09-05T23:20:11.329Z,17.20
2022-09-05T23:22:38.829Z,17.20
2022-09-05T23:25:05.761Z,17.10
2022-09-05T23:27:36.795Z,17.10
2022-09-05T23:30:04.737Z,17.10
2022-09-05T23:32:31.397Z,17.00
2022-09-05T23:34:58.236Z,17.00
2022-09-05T23:37:24.885Z,17.00
2022-09-05T23:39:51.596Z,16.90
2022-09-05T23:42:18.352Z,16.90
2022-09-05T23:44:44.993Z,16.90
2022-09-05T23:47:11.680Z,17.00
2022-09-05T23:49:38.356Z,16.90
2022-09-05T23:52:05.003Z,16.90
2022-09-05T23:54:31.642Z,17.00
2022-09-05T23:56:58.403Z,17.00
2022-09-05T23:59:25.113Z,17.00
